sensor_id;sensor_type;location;lat;lon;timestamp;pressure;altitude;pressure_sealevel;temperature;humidity
41862;BME280;27537;57.134;-2.136;2022-09-09T00:02:20;100499.03;;;16.66;100.00
41862;BME280;27537;57.134;-2.136;2022-09-09T00:05:00;100490.47;;;16.76;100.00
41862;BME280;27537;57.134;-2.136;2022-09-09T00:07:50;100467.41;;;16.65;100.00
41862;BME280;27537;57.134;-2.136;2022-09-09T00:15:57;100498.84;;;16.82;100.00
41862;BME280;27537;57.134;-2.136;2022-09-09T00:21:14;100496.28;;;16.68;100.00
41862;BME280;27537;57.134;-2.136;2022-09-09T00:23:48;100494.59;;;16.67;100.00
41862;BME280;27537;57.134;-2.136;2022-09-09T00:26:25;100503.44;;;16.66;100.00
41862;BME280;27537;57.134;-2.136;2022-09-09T00:31:38;100486.63;;;16.54;100.00
41862;BME280;27537;57.134;-2.136;2022-09-09T00:34:13;100506.69;;;16.44;100.00
41862;BME280;27537;57.134;-2.136;2022-09-09T00:36:41;100489.47;;;16.51;100.00
41862;BME280;27537;57.134;-2.136;2022-09-09T00:39:18;100511.09;;;16.70;100.00
41862;BME280;27537;57.134;-2.136;2022-09-09T00:44:37;100494.13;;;16.60;100.00
41862;BME280;27537;57.134;-2.136;2022-09-09T00:47:32;100516.44;;;16.56;100.00
41862;BME280;27537;57.134;-2.136;2022-09-09T00:58:14;100479.06;;;16.35;100.00
41862;BME280;27537;57.134;-2.136;2022-09-09T01:00:45;100520.53;;;16.47;100.00
41862;BME280;27537;57.134;-2.136;2022-09-09T01:11:41;100475.84;;;16.17;100.00
41862;BME280;27537;57.134;-2.136;2022-09-09T01:14:29;100460.19;;;16.14;100.00
41862;BME280;27537;57.134;-2.136;2022-09-09T01:17:30;100509.03;;;16.48;100.00
41862;BME280;27537;57.134;-2.136;2022-09-09T01:27:41;100497.16;;;16.41;100.00
41862;BME280;27537;57.134;-2.136;2022-09-09T01:30:11;100515.22;;;16.35;100.00
41862;BME280;27537;57.134;-2.136;2022-09-09T01:32:48;100501.31;;;16.45;100.00
41862;BME280;27537;57.134;-2.136;2022-09-09T01:37:54;100505.19;;;16.40;100.00
41862;BME280;27537;57.134;-2.136;2022-09-09T01:40:21;100486.22;;;16.20;100.00
41862;BME280;27537;57.134;-2.136;2022-09-09T01:42:48;100501.59;;;16.13;100.00
41862;BME280;27537;57.134;-2.136;2022-09-09T01:45:15;100512.97;;;16.28;100.00
41862;BME280;27537;57.134;-2.136;2022-09-09T01:47:42;100508.34;;;16.45;100.00
41862;BME280;27537;57.134;-2.136;2022-09-09T01:50:11;100511.13;;;16.43;100.00
41862;BME280;27537;57.134;-2.136;2022-09-09T01:52:41;100505.69;;;16.32;100.00
41862;BME280;27537;57.134;-2.136;2022-09-09T01:55:09;100490.06;;;16.29;100.00
41862;BME280;27537;57.134;-2.136;2022-09-09T01:57:47;100513.94;;;16.27;100.00
41862;BME280;27537;57.134;-2.136;2022-09-09T02:00:16;100514.84;;;16.26;100.00
41862;BME280;27537;57.134;-2.136;2022-09-09T02:08:18;100513.34;;;16.49;100.00
41862;BME280;27537;57.134;-2.136;2022-09-09T02:11:11;100519.63;;;16.61;100.00
41862;BME280;27537;57.134;-2.136;2022-09-09T02:13:40;100507.84;;;16.40;100.00
41862;BME280;27537;57.134;-2.136;2022-09-09T02:21:14;100526.34;;;15.98;100.00
41862;BME280;27537;57.134;-2.136;2022-09-09T02:23:43;100526.84;;;15.90;100.00
41862;BME280;27537;57.134;-2.136;2022-09-09T02:26:14;100545.13;;;15.79;100.00
41862;BME280;27537;57.134;-2.136;2022-09-09T02:28:48;100535.56;;;16.05;100.00
41862;BME280;27537;57.134;-2.136;2022-09-09T02:31:20;100540.06;;;15.90;100.00
41862;BME280;27537;57.134;-2.136;2022-09-09T02:33:52;100526.81;;;16.05;100.00
41862;BME280;27537;57.134;-2.136;2022-09-09T02:36:22;100547.63;;;16.09;100.00
41862;BME280;27537;57.134;-2.136;2022-09-09T02:38:50;100557.00;;;15.86;100.00
41862;BME280;27537;57.134;-2.136;2022-09-09T02:41:25;100538.25;;;15.91;100.00
41862;BME280;27537;57.134;-2.136;2022-09-09T02:43:54;100541.44;;;15.96;100.00
41862;BME280;27537;57.134;-2.136;2022-09-09T02:49:01;100573.00;;;16.12;100.00
41862;BME280;27537;57.134;-2.136;2022-09-09T02:56:49;100543.59;;;16.04;100.00
41862;BME280;27537;57.134;-2.136;2022-09-09T02:59:18;100534.00;;;16.03;100.00
41862;BME280;27537;57.134;-2.136;2022-09-09T03:01:45;100562.03;;;16.32;100.00
41862;BME280;27537;57.134;-2.136;2022-09-09T03:04:11;100534.72;;;16.05;100.00
41862;BME280;27537;57.134;-2.136;2022-09-09T03:06:38;100527.19;;;16.13;100.00
41862;BME280;27537;57.134;-2.136;2022-09-09T03:09:05;100547.75;;;16.35;100.00
41862;BME280;27537;57.134;-2.136;2022-09-09T03:11:31;100507.38;;;16.06;100.00
41862;BME280;27537;57.134;-2.136;2022-09-09T03:13:58;100541.38;;;16.25;100.00
41862;BME280;27537;57.134;-2.136;2022-09-09T03:16:25;100546.69;;;16.38;100.00
41862;BME280;27537;57.134;-2.136;2022-09-09T03:18:52;100522.41;;;15.91;100.00
41862;BME280;27537;57.134;-2.136;2022-09-09T03:21:18;100537.97;;;15.96;100.00
41862;BME280;27537;57.134;-2.136;2022-09-09T03:23:46;100550.03;;;15.85;100.00
41862;BME280;27537;57.134;-2.136;2022-09-09T03:26:12;100525.88;;;15.91;100.00
41862;BME280;27537;57.134;-2.136;2022-09-09T03:28:42;100506.47;;;15.92;100.00
41862;BME280;27537;57.134;-2.136;2022-09-09T03:31:09;100538.81;;;15.96;100.00
41862;BME280;27537;57.134;-2.136;2022-09-09T03:33:37;100573.13;;;15.96;100.00
41862;BME280;27537;57.134;-2.136;2022-09-09T03:36:05;100577.09;;;16.03;100.00
41862;BME280;27537;57.134;-2.136;2022-09-09T03:38:34;100558.22;;;15.95;100.00
41862;BME280;27537;57.134;-2.136;2022-09-09T03:41:01;100551.72;;;16.01;100.00
41862;BME280;27537;57.134;-2.136;2022-09-09T03:43:28;100566.16;;;15.81;100.00
41862;BME280;27537;57.134;-2.136;2022-09-09T03:45:56;100547.00;;;15.63;100.00
41862;BME280;27537;57.134;-2.136;2022-09-09T03:48:26;100539.66;;;15.68;100.00
41862;BME280;27537;57.134;-2.136;2022-09-09T03:50:55;100529.38;;;15.63;100.00
41862;BME280;27537;57.134;-2.136;2022-09-09T03:53:24;100580.09;;;15.83;100.00
41862;BME280;27537;57.134;-2.136;2022-09-09T03:55:53;100588.88;;;15.98;100.00
41862;BME280;27537;57.134;-2.136;2022-09-09T03:58:22;100579.44;;;15.93;100.00
41862;BME280;27537;57.134;-2.136;2022-09-09T04:00:58;100584.16;;;16.03;100.00
41862;BME280;27537;57.134;-2.136;2022-09-09T04:03:26;100587.34;;;15.93;100.00
41862;BME280;27537;57.134;-2.136;2022-09-09T04:05:55;100549.56;;;15.79;100.00
41862;BME280;27537;57.134;-2.136;2022-09-09T04:08:23;100586.06;;;16.01;100.00
41862;BME280;27537;57.134;-2.136;2022-09-09T04:10:52;100579.94;;;15.86;100.00
41862;BME280;27537;57.134;-2.136;2022-09-09T04:13:19;100589.88;;;16.09;100.00
41862;BME280;27537;57.134;-2.136;2022-09-09T04:15:57;100556.06;;;15.73;100.00
41862;BME280;27537;57.134;-2.136;2022-09-09T04:18:25;100564.75;;;15.75;100.00
41862;BME280;27537;57.134;-2.136;2022-09-09T04:20:52;100582.28;;;16.05;100.00
41862;BME280;27537;57.134;-2.136;2022-09-09T04:23:20;100553.81;;;15.96;100.00
41862;BME280;27537;57.134;-2.136;2022-09-09T04:25:48;100530.13;;;15.94;100.00
41862;BME280;27537;57.134;-2.136;2022-09-09T04:28:16;100550.31;;;15.95;100.00
41862;BME280;27537;57.134;-2.136;2022-09-09T04:30:44;100562.81;;;16.06;100.00
41862;BME280;27537;57.134;-2.136;2022-09-09T04:33:12;100576.47;;;16.27;100.00
41862;BME280;27537;57.134;-2.136;2022-09-09T04:35:43;100541.91;;;16.03;100.00
41862;BME280;27537;57.134;-2.136;2022-09-09T04:38:10;100525.72;;;15.80;100.00
41862;BME280;27537;57.134;-2.136;2022-09-09T04:40:37;100524.28;;;15.89;100.00
41862;BME280;27537;57.134;-2.136;2022-09-09T04:43:07;100542.63;;;16.19;100.00
41862;BME280;27537;57.134;-2.136;2022-09-09T04:45:39;100526.88;;;16.18;100.00
41862;BME280;27537;57.134;-2.136;2022-09-09T04:48:07;100567.47;;;16.44;100.00
41862;BME280;27537;57.134;-2.136;2022-09-09T04:50:34;100549.16;;;16.41;100.00
41862;BME280;27537;57.134;-2.136;2022-09-09T04:53:04;100572.13;;;16.53;100.00
41862;BME280;27537;57.134;-2.136;2022-09-09T04:55:32;100572.13;;;16.53;100.00
41862;BME280;27537;57.134;-2.136;2022-09-09T04:58:06;100575.28;;;16.45;100.00
41862;BME280;27537;57.134;-2.136;2022-09-09T05:00:34;100562.13;;;16.31;100.00
41862;BME280;27537;57.134;-2.136;2022-09-09T05:03:04;100575.25;;;16.60;100.00
41862;BME280;27537;57.134;-2.136;2022-09-09T05:05:32;100569.41;;;16.55;100.00
41862;BME280;27537;57.134;-2.136;2022-09-09T05:08:05;100553.16;;;16.33;100.00
41862;BME280;27537;57.134;-2.136;2022-09-09T05:10:33;100579.09;;;16.27;100.00
41862;BME280;27537;57.134;-2.136;2022-09-09T05:12:59;100539.84;;;16.08;100.00
41862;BME280;27537;57.134;-2.136;2022-09-09T05:15:26;100541.69;;;16.06;100.00
41862;BME280;27537;57.134;-2.136;2022-09-09T05:18:00;100547.91;;;16.19;100.00
41862;BME280;27537;57.134;-2.136;2022-09-09T05:20:27;100548.19;;;16.14;100.00
41862;BME280;27537;57.134;-2.136;2022-09-09T05:22:55;100524.13;;;15.92;100.00
41862;BME280;27537;57.134;-2.136;2022-09-09T05:25:23;100550.31;;;15.95;100.00
41862;BME280;27537;57.134;-2.136;2022-09-09T05:27:52;100594.53;;;16.20;100.00
41862;BME280;27537;57.134;-2.136;2022-09-09T05:30:21;100553.59;;;16.13;100.00
41862;BME280;27537;57.134;-2.136;2022-09-09T05:32:49;100554.81;;;16.07;100.00
41862;BME280;27537;57.134;-2.136;2022-09-09T05:35:16;100574.38;;;16.32;100.00
41862;BME280;27537;57.134;-2.136;2022-09-09T05:37:45;100520.41;;;15.94;100.00
41862;BME280;27537;57.134;-2.136;2022-09-09T05:40:12;100609.56;;;16.47;100.00
41862;BME280;27537;57.134;-2.136;2022-09-09T05:42:40;100578.75;;;16.19;100.00
41862;BME280;27537;57.134;-2.136;2022-09-09T05:45:20;100613.03;;;16.47;100.00
41862;BME280;27537;57.134;-2.136;2022-09-09T05:48:01;100566.72;;;16.42;100.00
41862;BME280;27537;57.134;-2.136;2022-09-09T05:50:42;100604.53;;;16.69;100.00
41862;BME280;27537;57.134;-2.136;2022-09-09T05:53:26;100597.31;;;16.59;100.00
41862;BME280;27537;57.134;-2.136;2022-09-09T05:58:27;100584.31;;;16.56;100.00
41862;BME280;27537;57.134;-2.136;2022-09-09T06:01:06;100598.97;;;16.74;100.00
41862;BME280;27537;57.134;-2.136;2022-09-09T06:03:38;100581.22;;;16.49;100.00
41862;BME280;27537;57.134;-2.136;2022-09-09T06:06:07;100600.22;;;16.68;100.00
41862;BME280;27537;57.134;-2.136;2022-09-09T06:08:36;100577.00;;;16.32;100.00
41862;BME280;27537;57.134;-2.136;2022-09-09T06:11:08;100580.63;;;16.58;100.00
41862;BME280;27537;57.134;-2.136;2022-09-09T06:13:35;100589.25;;;16.47;100.00
41862;BME280;27537;57.134;-2.136;2022-09-09T06:16:09;100579.91;;;16.69;100.00
41862;BME280;27537;57.134;-2.136;2022-09-09T06:18:38;100523.28;;;16.19;100.00
41862;BME280;27537;57.134;-2.136;2022-09-09T06:21:09;100490.53;;;15.94;100.00
41862;BME280;27537;57.134;-2.136;2022-09-09T06:23:39;100581.13;;;16.50;100.00
41862;BME280;27537;57.134;-2.136;2022-09-09T06:26:10;100622.53;;;16.64;100.00
41862;BME280;27537;57.134;-2.136;2022-09-09T06:28:38;100621.41;;;16.81;100.00
41862;BME280;27537;57.134;-2.136;2022-09-09T06:31:07;100602.50;;;16.60;100.00
41862;BME280;27537;57.134;-2.136;2022-09-09T06:33:36;100586.75;;;16.31;100.00
41862;BME280;27537;57.134;-2.136;2022-09-09T06:36:17;100607.75;;;16.47;100.00
41862;BME280;27537;57.134;-2.136;2022-09-09T06:38:45;100610.03;;;16.39;100.00
41862;BME280;27537;57.134;-2.136;2022-09-09T06:41:15;100608.13;;;16.41;100.00
41862;BME280;27537;57.134;-2.136;2022-09-09T06:43:43;100620.56;;;16.54;100.00
41862;BME280;27537;57.134;-2.136;2022-09-09T06:46:12;100638.91;;;16.69;100.00
41862;BME280;27537;57.134;-2.136;2022-09-09T06:48:54;100620.34;;;16.57;100.00
41862;BME280;27537;57.134;-2.136;2022-09-09T06:51:39;100659.50;;;16.79;100.00
41862;BME280;27537;57.134;-2.136;2022-09-09T06:54:24;100639.59;;;16.59;100.00
41862;BME280;27537;57.134;-2.136;2022-09-09T06:57:05;100667.03;;;16.85;100.00
41862;BME280;27537;57.134;-2.136;2022-09-09T06:59:47;100638.78;;;16.58;100.00
41862;BME280;27537;57.134;-2.136;2022-09-09T07:02:28;100636.88;;;16.60;100.00
41862;BME280;27537;57.134;-2.136;2022-09-09T07:05:09;100650.47;;;16.96;100.00
41862;BME280;27537;57.134;-2.136;2022-09-09T07:07:50;100654.38;;;16.90;100.00
41862;BME280;27537;57.134;-2.136;2022-09-09T07:10:31;100681.56;;;16.92;100.00
41862;BME280;27537;57.134;-2.136;2022-09-09T07:13:14;100687.34;;;17.12;100.00
41862;BME280;27537;57.134;-2.136;2022-09-09T07:16:06;100686.97;;;17.31;100.00
41862;BME280;27537;57.134;-2.136;2022-09-09T07:18:47;100650.56;;;17.34;100.00
41862;BME280;27537;57.134;-2.136;2022-09-09T07:21:29;100686.94;;;17.83;100.00
41862;BME280;27537;57.134;-2.136;2022-09-09T07:24:11;100671.91;;;17.58;100.00
41862;BME280;27537;57.134;-2.136;2022-09-09T07:26:51;100645.91;;;17.38;100.00
41862;BME280;27537;57.134;-2.136;2022-09-09T07:29:32;100675.50;;;17.83;100.00
41862;BME280;27537;57.134;-2.136;2022-09-09T07:32:13;100702.22;;;17.93;100.00
41862;BME280;27537;57.134;-2.136;2022-09-09T07:34:54;100690.88;;;18.03;100.00
41862;BME280;27537;57.134;-2.136;2022-09-09T07:37:36;100678.16;;;17.83;100.00
41862;BME280;27537;57.134;-2.136;2022-09-09T07:40:17;100684.53;;;18.06;100.00
41862;BME280;27537;57.134;-2.136;2022-09-09T07:42:58;100709.94;;;17.83;100.00
41862;BME280;27537;57.134;-2.136;2022-09-09T07:45:39;100707.84;;;18.01;100.00
41862;BME280;27537;57.134;-2.136;2022-09-09T07:48:20;100689.06;;;17.78;100.00
41862;BME280;27537;57.134;-2.136;2022-09-09T07:51:08;100733.78;;;17.83;100.00
41862;BME280;27537;57.134;-2.136;2022-09-09T07:53:58;100724.59;;;17.89;100.00
41862;BME280;27537;57.134;-2.136;2022-09-09T07:56:40;100726.03;;;17.80;100.00
41862;BME280;27537;57.134;-2.136;2022-09-09T07:59:21;100709.69;;;17.60;100.00
41862;BME280;27537;57.134;-2.136;2022-09-09T08:02:02;100717.31;;;17.65;100.00
41862;BME280;27537;57.134;-2.136;2022-09-09T08:04:42;100679.75;;;17.73;100.00
41862;BME280;27537;57.134;-2.136;2022-09-09T08:07:09;100697.88;;;18.05;100.00
41862;BME280;27537;57.134;-2.136;2022-09-09T08:09:50;100688.97;;;17.93;100.00
41862;BME280;27537;57.134;-2.136;2022-09-09T08:12:26;100712.69;;;18.20;100.00
41862;BME280;27537;57.134;-2.136;2022-09-09T08:15:07;100721.19;;;18.12;100.00
41862;BME280;27537;57.134;-2.136;2022-09-09T08:17:48;100709.59;;;18.39;100.00
41862;BME280;27537;57.134;-2.136;2022-09-09T08:20:29;100756.28;;;18.78;100.00
41862;BME280;27537;57.134;-2.136;2022-09-09T08:23:10;100752.63;;;18.55;100.00
41862;BME280;27537;57.134;-2.136;2022-09-09T08:25:50;100773.16;;;18.77;100.00
41862;BME280;27537;57.134;-2.136;2022-09-09T08:28:31;100755.09;;;18.46;100.00
41862;BME280;27537;57.134;-2.136;2022-09-09T08:31:14;100737.81;;;18.27;100.00
41862;BME280;27537;57.134;-2.136;2022-09-09T08:33:57;100744.63;;;18.18;100.00
41862;BME280;27537;57.134;-2.136;2022-09-09T08:36:41;100775.69;;;18.29;100.00
41862;BME280;27537;57.134;-2.136;2022-09-09T08:39:23;100743.75;;;18.18;100.00
41862;BME280;27537;57.134;-2.136;2022-09-09T08:42:27;100753.09;;;18.36;100.00
41862;BME280;27537;57.134;-2.136;2022-09-09T08:48:16;100745.31;;;17.82;100.00
41862;BME280;27537;57.134;-2.136;2022-09-09T08:51:00;100784.78;;;18.51;100.00
41862;BME280;27537;57.134;-2.136;2022-09-09T08:53:47;100749.06;;;18.18;100.00
41862;BME280;27537;57.134;-2.136;2022-09-09T08:56:31;100786.78;;;18.60;100.00
41862;BME280;27537;57.134;-2.136;2022-09-09T08:59:16;100768.59;;;18.79;100.00
41862;BME280;27537;57.134;-2.136;2022-09-09T09:02:04;100781.47;;;19.10;100.00
41862;BME280;27537;57.134;-2.136;2022-09-09T09:05:23;100803.25;;;19.39;100.00
41862;BME280;27537;57.134;-2.136;2022-09-09T09:10:51;100813.44;;;19.08;100.00
41862;BME280;27537;57.134;-2.136;2022-09-09T09:13:40;100821.91;;;19.13;100.00
41862;BME280;27537;57.134;-2.136;2022-09-09T09:16:50;100815.66;;;19.14;100.00
41862;BME280;27537;57.134;-2.136;2022-09-09T09:19:29;100823.72;;;19.13;100.00
41862;BME280;27537;57.134;-2.136;2022-09-09T09:22:26;100837.06;;;19.24;100.00
41862;BME280;27537;57.134;-2.136;2022-09-09T09:25:20;100802.53;;;19.00;100.00
41862;BME280;27537;57.134;-2.136;2022-09-09T09:28:15;100844.91;;;19.02;100.00
41862;BME280;27537;57.134;-2.136;2022-09-09T09:31:09;100792.69;;;18.76;100.00
41862;BME280;27537;57.134;-2.136;2022-09-09T09:33:52;100832.25;;;18.92;100.00
41862;BME280;27537;57.134;-2.136;2022-09-09T09:36:37;100842.41;;;19.11;100.00
41862;BME280;27537;57.134;-2.136;2022-09-09T09:39:28;100850.94;;;18.91;100.00
41862;BME280;27537;57.134;-2.136;2022-09-09T09:42:17;100821.44;;;18.57;100.00
41862;BME280;27537;57.134;-2.136;2022-09-09T09:48:03;100847.56;;;18.63;100.00
41862;BME280;27537;57.134;-2.136;2022-09-09T09:51:08;100835.31;;;17.96;100.00
41862;BME280;27537;57.134;-2.136;2022-09-09T09:53:50;100859.66;;;18.54;100.00
41862;BME280;27537;57.134;-2.136;2022-09-09T09:56:34;100861.88;;;18.73;100.00
41862;BME280;27537;57.134;-2.136;2022-09-09T09:59:34;100868.34;;;18.56;100.00
41862;BME280;27537;57.134;-2.136;2022-09-09T10:02:23;100867.50;;;18.56;100.00
41862;BME280;27537;57.134;-2.136;2022-09-09T10:08:12;100875.00;;;18.75;100.00
41862;BME280;27537;57.134;-2.136;2022-09-09T10:22:27;100846.44;;;18.01;100.00
41862;BME280;27537;57.134;-2.136;2022-09-09T10:25:17;100871.81;;;18.18;100.00
41862;BME280;27537;57.134;-2.136;2022-09-09T10:31:18;100838.06;;;18.08;100.00
41862;BME280;27537;57.134;-2.136;2022-09-09T10:54:58;100896.75;;;18.42;100.00
41862;BME280;27537;57.134;-2.136;2022-09-09T10:57:40;100900.53;;;18.25;100.00
41862;BME280;27537;57.134;-2.136;2022-09-09T11:03:18;100858.63;;;18.04;100.00
41862;BME280;27537;57.134;-2.136;2022-09-09T11:06:06;100877.78;;;18.35;100.00
41862;BME280;27537;57.134;-2.136;2022-09-09T11:08:51;100866.00;;;18.26;100.00
41862;BME280;27537;57.134;-2.136;2022-09-09T11:11:44;100910.25;;;18.77;100.00
41862;BME280;27537;57.134;-2.136;2022-09-09T11:17:24;100902.94;;;18.81;100.00
41862;BME280;27537;57.134;-2.136;2022-09-09T11:20:11;100865.16;;;18.77;100.00
41862;BME280;27537;57.134;-2.136;2022-09-09T11:22:57;100916.94;;;18.95;100.00
41862;BME280;27537;57.134;-2.136;2022-09-09T11:25:43;100921.72;;;19.03;100.00
41862;BME280;27537;57.134;-2.136;2022-09-09T11:32:16;100915.41;;;19.30;100.00
41862;BME280;27537;57.134;-2.136;2022-09-09T11:40:26;100895.06;;;19.05;100.00
41862;BME280;27537;57.134;-2.136;2022-09-09T11:43:12;100924.50;;;19.51;100.00
41862;BME280;27537;57.134;-2.136;2022-09-09T11:45:42;100892.28;;;19.32;100.00
41862;BME280;27537;57.134;-2.136;2022-09-09T11:48:45;100898.69;;;19.04;100.00
41862;BME280;27537;57.134;-2.136;2022-09-09T11:51:29;100911.41;;;18.73;100.00
41862;BME280;27537;57.134;-2.136;2022-09-09T11:57:02;100895.38;;;18.74;100.00
41862;BME280;27537;57.134;-2.136;2022-09-09T11:59:32;100806.22;;;18.35;100.00
41862;BME280;27537;57.134;-2.136;2022-09-09T12:02:22;100881.75;;;19.30;100.00
41862;BME280;27537;57.134;-2.136;2022-09-09T12:05:04;100939.22;;;19.06;100.00
41862;BME280;27537;57.134;-2.136;2022-09-09T12:07:55;100924.69;;;19.11;100.00
41862;BME280;27537;57.134;-2.136;2022-09-09T12:10:40;100911.84;;;18.79;100.00
41862;BME280;27537;57.134;-2.136;2022-09-09T12:13:23;100910.13;;;19.17;100.00
41862;BME280;27537;57.134;-2.136;2022-09-09T12:16:04;100928.81;;;19.15;100.00
41862;BME280;27537;57.134;-2.136;2022-09-09T12:18:37;100900.34;;;19.30;100.00
41862;BME280;27537;57.134;-2.136;2022-09-09T12:24:30;100935.31;;;18.99;100.00
41862;BME280;27537;57.134;-2.136;2022-09-09T12:27:14;100950.34;;;19.24;100.00
41862;BME280;27537;57.134;-2.136;2022-09-09T12:29:55;100951.34;;;18.97;100.00
41862;BME280;27537;57.134;-2.136;2022-09-09T12:32:26;100906.44;;;18.68;100.00
41862;BME280;27537;57.134;-2.136;2022-09-09T12:35:20;100958.63;;;18.81;100.00
41862;BME280;27537;57.134;-2.136;2022-09-09T12:37:50;100942.75;;;18.93;100.00
41862;BME280;27537;57.134;-2.136;2022-09-09T12:42:53;100954.06;;;18.70;100.00
41862;BME280;27537;57.134;-2.136;2022-09-09T12:45:30;100908.56;;;18.50;100.00
41862;BME280;27537;57.134;-2.136;2022-09-09T12:48:05;100915.63;;;18.63;100.00
41862;BME280;27537;57.134;-2.136;2022-09-09T12:50:37;100864.84;;;18.56;100.00
41862;BME280;27537;57.134;-2.136;2022-09-09T12:53:11;100928.75;;;18.91;100.00
41862;BME280;27537;57.134;-2.136;2022-09-09T12:55:50;100918.63;;;18.84;100.00
41862;BME280;27537;57.134;-2.136;2022-09-09T12:58:19;100929.81;;;19.02;100.00
41862;BME280;27537;57.134;-2.136;2022-09-09T13:00:54;100923.09;;;18.70;100.00
41862;BME280;27537;57.134;-2.136;2022-09-09T13:03:26;100953.94;;;19.23;100.00
41862;BME280;27537;57.134;-2.136;2022-09-09T13:05:56;100956.22;;;19.16;100.00
41862;BME280;27537;57.134;-2.136;2022-09-09T13:08:26;100950.47;;;19.09;100.00
41862;BME280;27537;57.134;-2.136;2022-09-09T13:11:00;100930.28;;;18.55;100.00
41862;BME280;27537;57.134;-2.136;2022-09-09T13:13:36;100926.97;;;18.52;100.00
41862;BME280;27537;57.134;-2.136;2022-09-09T13:16:06;100940.38;;;18.76;100.00
41862;BME280;27537;57.134;-2.136;2022-09-09T13:18:36;100950.44;;;18.71;100.00
41862;BME280;27537;57.134;-2.136;2022-09-09T13:21:06;100907.69;;;18.75;100.00
41862;BME280;27537;57.134;-2.136;2022-09-09T13:23:35;100969.69;;;18.87;100.00
41862;BME280;27537;57.134;-2.136;2022-09-09T13:26:22;100946.22;;;18.68;100.00
41862;BME280;27537;57.134;-2.136;2022-09-09T13:28:53;100971.28;;;18.90;100.00
41862;BME280;27537;57.134;-2.136;2022-09-09T13:31:24;100941.50;;;18.59;100.00
41862;BME280;27537;57.134;-2.136;2022-09-09T13:33:54;100968.22;;;18.83;100.00
41862;BME280;27537;57.134;-2.136;2022-09-09T13:36:33;100837.56;;;18.02;100.00
41862;BME280;27537;57.134;-2.136;2022-09-09T13:39:03;100920.09;;;18.36;100.00
41862;BME280;27537;57.134;-2.136;2022-09-09T13:41:35;100981.63;;;18.67;100.00
41862;BME280;27537;57.134;-2.136;2022-09-09T13:44:03;100942.59;;;18.56;100.00
41862;BME280;27537;57.134;-2.136;2022-09-09T13:51:49;100945.34;;;18.15;100.00
41862;BME280;27537;57.134;-2.136;2022-09-09T13:54:19;100949.63;;;18.30;100.00
41862;BME280;27537;57.134;-2.136;2022-09-09T13:56:46;100942.06;;;18.11;100.00
41862;BME280;27537;57.134;-2.136;2022-09-09T13:59:16;100935.06;;;18.10;100.00
41862;BME280;27537;57.134;-2.136;2022-09-09T14:01:45;100934.31;;;18.08;100.00
41862;BME280;27537;57.134;-2.136;2022-09-09T14:04:13;100960.13;;;18.19;100.00
41862;BME280;27537;57.134;-2.136;2022-09-09T14:06:40;100914.72;;;18.24;100.00
41862;BME280;27537;57.134;-2.136;2022-09-09T14:09:11;100984.59;;;18.23;100.00
41862;BME280;27537;57.134;-2.136;2022-09-09T14:11:39;100946.44;;;18.25;100.00
41862;BME280;27537;57.134;-2.136;2022-09-09T14:14:08;100990.63;;;18.12;100.00
41862;BME280;27537;57.134;-2.136;2022-09-09T14:16:35;100957.47;;;18.19;100.00
41862;BME280;27537;57.134;-2.136;2022-09-09T14:19:03;100929.78;;;17.69;100.00
41862;BME280;27537;57.134;-2.136;2022-09-09T14:21:30;100927.31;;;17.80;100.00
41862;BME280;27537;57.134;-2.136;2022-09-09T14:24:03;100937.25;;;18.03;100.00
41862;BME280;27537;57.134;-2.136;2022-09-09T14:26:37;100944.44;;;17.74;100.00
41862;BME280;27537;57.134;-2.136;2022-09-09T14:29:04;100917.84;;;17.90;100.00
41862;BME280;27537;57.134;-2.136;2022-09-09T14:31:31;100955.44;;;18.10;100.00
41862;BME280;27537;57.134;-2.136;2022-09-09T14:34:00;100966.28;;;18.32;100.00
41862;BME280;27537;57.134;-2.136;2022-09-09T14:36:27;100931.34;;;18.13;100.00
41862;BME280;27537;57.134;-2.136;2022-09-09T14:38:58;100944.41;;;18.16;100.00
41862;BME280;27537;57.134;-2.136;2022-09-09T14:41:26;100950.47;;;17.91;100.00
41862;BME280;27537;57.134;-2.136;2022-09-09T14:43:53;100960.72;;;17.68;100.00
41862;BME280;27537;57.134;-2.136;2022-09-09T14:46:20;100944.44;;;17.74;100.00
41862;BME280;27537;57.134;-2.136;2022-09-09T14:48:49;100966.38;;;17.76;100.00
41862;BME280;27537;57.134;-2.136;2022-09-09T14:51:24;100948.69;;;17.77;100.00
41862;BME280;27537;57.134;-2.136;2022-09-09T14:53:53;100977.47;;;18.10;100.00
41862;BME280;27537;57.134;-2.136;2022-09-09T14:56:24;100976.16;;;18.03;100.00
41862;BME280;27537;57.134;-2.136;2022-09-09T14:58:56;100950.97;;;17.69;100.00
41862;BME280;27537;57.134;-2.136;2022-09-09T15:01:24;100939.97;;;17.89;100.00
41862;BME280;27537;57.134;-2.136;2022-09-09T15:03:59;100954.53;;;17.82;100.00
41862;BME280;27537;57.134;-2.136;2022-09-09T15:06:29;100992.06;;;18.03;100.00
41862;BME280;27537;57.134;-2.136;2022-09-09T15:08:57;100945.78;;;17.67;100.00
41862;BME280;27537;57.134;-2.136;2022-09-09T15:11:33;100980.63;;;18.02;100.00
41862;BME280;27537;57.134;-2.136;2022-09-09T15:14:01;100956.53;;;17.78;100.00
41862;BME280;27537;57.134;-2.136;2022-09-09T15:16:29;100954.81;;;17.77;100.00
41862;BME280;27537;57.134;-2.136;2022-09-09T15:18:58;100905.84;;;17.43;100.00
41862;BME280;27537;57.134;-2.136;2022-09-09T15:21:27;100917.00;;;17.34;100.00
41862;BME280;27537;57.134;-2.136;2022-09-09T15:23:55;100987.06;;;17.84;100.00
41862;BME280;27537;57.134;-2.136;2022-09-09T15:26:22;100983.56;;;17.83;100.00
41862;BME280;27537;57.134;-2.136;2022-09-09T15:28:49;100953.41;;;17.30;100.00
41862;BME280;27537;57.134;-2.136;2022-09-09T15:31:20;100988.63;;;17.59;100.00